sensor_id;sensor_type;location;lat;lon;timestamp;pressure;altitude;pressure_sealevel;temperature;humidity
70027;BME280;57506;50.092;15.804;2022-10-16T00:00:32;99111.66;;;13.23;100.00
70027;BME280;57506;50.092;15.804;2022-10-16T00:02:58;99108.53;;;13.20;100.00
70027;BME280;57506;50.092;15.804;2022-10-16T00:05:23;99111.88;;;13.22;100.00
70027;BME280;57506;50.092;15.804;2022-10-16T00:07:49;99116.84;;;13.25;100.00
70027;BME280;57506;50.092;15.804;2022-10-16T00:10:14;99115.41;;;13.29;100.00
70027;BME280;57506;50.092;15.804;2022-10-16T00:12:40;99112.69;;;13.29;100.00
70027;BME280;57506;50.092;15.804;2022-10-16T00:15:06;99112.69;;;13.29;100.00
70027;BME280;57506;50.092;15.804;2022-10-16T00:17:32;99095.84;;;13.20;100.00
70027;BME280;57506;50.092;15.804;2022-10-16T00:19:57;99108.72;;;13.25;100.00
70027;BME280;57506;50.092;15.804;2022-10-16T00:22:23;99100.41;;;13.20;100.00
70027;BME280;57506;50.092;15.804;2022-10-16T00:24:49;99108.09;;;13.29;100.00
70027;BME280;57506;50.092;15.804;2022-10-16T00:27:14;99103.72;;;13.28;100.00
70027;BME280;57506;50.092;15.804;2022-10-16T00:29:40;99099.38;;;13.21;100.00
70027;BME280;57506;50.092;15.804;2022-10-16T00:32:05;99108.47;;;13.33;100.00
70027;BME280;57506;50.092;15.804;2022-10-16T00:34:31;99112.84;;;13.34;100.00
70027;BME280;57506;50.092;15.804;2022-10-16T00:36:56;99095.63;;;13.22;100.00
70027;BME280;57506;50.092;15.804;2022-10-16T00:39:22;99125.34;;;13.42;100.00
70027;BME280;57506;50.092;15.804;2022-10-16T00:41:47;99132.81;;;13.46;100.00
70027;BME280;57506;50.092;15.804;2022-10-16T00:47:12;99131.16;;;13.45;100.00
70027;BME280;57506;50.092;15.804;2022-10-16T00:49:39;99136.94;;;13.49;100.00
70027;BME280;57506;50.092;15.804;2022-10-16T00:52:05;99139.84;;;13.54;100.00
70027;BME280;57506;50.092;15.804;2022-10-16T00:54:32;99131.09;;;13.58;100.00
70027;BME280;57506;50.092;15.804;2022-10-16T00:57:01;99134.88;;;13.51;100.00
70027;BME280;57506;50.092;15.804;2022-10-16T00:59:40;99137.78;;;13.56;100.00
70027;BME280;57506;50.092;15.804;2022-10-16T01:02:09;99143.41;;;13.54;100.00
70027;BME280;57506;50.092;15.804;2022-10-16T01:04:49;99140.69;;;13.54;100.00
70027;BME280;57506;50.092;15.804;2022-10-16T01:10:29;99151.53;;;13.54;100.00
70027;BME280;57506;50.092;15.804;2022-10-16T01:12:58;99160.25;;;13.56;100.00
70027;BME280;57506;50.092;15.804;2022-10-16T01:15:34;99176.94;;;13.53;100.00
70027;BME280;57506;50.092;15.804;2022-10-16T01:18:10;99171.50;;;13.53;100.00
70027;BME280;57506;50.092;15.804;2022-10-16T01:20:45;99169.84;;;13.52;100.00
70027;BME280;57506;50.092;15.804;2022-10-16T01:26:13;99168.84;;;13.40;100.00
70027;BME280;57506;50.092;15.804;2022-10-16T01:31:20;99166.38;;;13.32;100.00
70027;BME280;57506;50.092;15.804;2022-10-16T01:33:53;99150.78;;;13.21;100.00
70027;BME280;57506;50.092;15.804;2022-10-16T01:36:26;99175.09;;;13.34;100.00
70027;BME280;57506;50.092;15.804;2022-10-16T01:38:56;99174.91;;;13.36;100.00
70027;BME280;57506;50.092;15.804;2022-10-16T01:41:36;99169.28;;;13.37;100.00
70027;BME280;57506;50.092;15.804;2022-10-16T01:44:25;99160.34;;;13.23;100.00
70027;BME280;57506;50.092;15.804;2022-10-16T01:46:54;99173.22;;;13.35;100.00
70027;BME280;57506;50.092;15.804;2022-10-16T01:49:22;99165.31;;;13.33;100.00
70027;BME280;57506;50.092;15.804;2022-10-16T01:51:52;99163.44;;;13.34;100.00
70027;BME280;57506;50.092;15.804;2022-10-16T01:54:19;99150.56;;;13.29;100.00
70027;BME280;57506;50.092;15.804;2022-10-16T01:56:48;99153.28;;;13.22;100.00
70027;BME280;57506;50.092;15.804;2022-10-16T01:59:18;99158.06;;;13.27;100.00
70027;BME280;57506;50.092;15.804;2022-10-16T02:01:50;99166.81;;;13.29;100.00
70027;BME280;57506;50.092;15.804;2022-10-16T02:04:26;99163.28;;;13.28;100.00
70027;BME280;57506;50.092;15.804;2022-10-16T02:06:53;99145.78;;;13.24;100.00
70027;BME280;57506;50.092;15.804;2022-10-16T02:09:19;99156.19;;;13.27;100.00
70027;BME280;57506;50.092;15.804;2022-10-16T02:11:45;99157.41;;;13.31;100.00
70027;BME280;57506;50.092;15.804;2022-10-16T02:14:10;99160.75;;;13.34;100.00
70027;BME280;57506;50.092;15.804;2022-10-16T02:16:39;99156.19;;;13.27;100.00
70027;BME280;57506;50.092;15.804;2022-10-16T02:19:06;99167.19;;;13.32;100.00
70027;BME280;57506;50.092;15.804;2022-10-16T02:21:43;99164.06;;;13.36;100.00
70027;BME280;57506;50.092;15.804;2022-10-16T02:29:16;99167.41;;;13.38;100.00
70027;BME280;57506;50.092;15.804;2022-10-16T02:31:46;99160.75;;;13.34;100.00
70027;BME280;57506;50.092;15.804;2022-10-16T02:34:14;99168.22;;;13.38;100.00
70027;BME280;57506;50.092;15.804;2022-10-16T02:36:42;99153.91;;;13.31;100.00
70027;BME280;57506;50.092;15.804;2022-10-16T02:39:10;99162.19;;;13.36;100.00
70027;BME280;57506;50.092;15.804;2022-10-16T02:41:36;99164.09;;;13.29;100.00
70027;BME280;57506;50.092;15.804;2022-10-16T02:44:02;99165.78;;;13.23;100.00
70027;BME280;57506;50.092;15.804;2022-10-16T02:46:27;99164.31;;;13.21;100.00
70027;BME280;57506;50.092;15.804;2022-10-16T02:48:53;99163.91;;;13.24;100.00
70027;BME280;57506;50.092;15.804;2022-10-16T02:51:18;99169.94;;;13.19;100.00
70027;BME280;57506;50.092;15.804;2022-10-16T02:53:44;99165.78;;;13.17;100.00
70027;BME280;57506;50.092;15.804;2022-10-16T02:56:09;99163.69;;;13.19;100.00
70027;BME280;57506;50.092;15.804;2022-10-16T02:58:35;99172.63;;;13.13;100.00
70027;BME280;57506;50.092;15.804;2022-10-16T03:01:01;99177.84;;;13.14;100.00
70027;BME280;57506;50.092;15.804;2022-10-16T03:03:26;99173.28;;;13.15;100.00
70027;BME280;57506;50.092;15.804;2022-10-16T03:05:52;99179.94;;;13.19;100.00
70027;BME280;57506;50.092;15.804;2022-10-16T03:08:17;99171.41;;;13.15;100.00
70027;BME280;57506;50.092;15.804;2022-10-16T03:10:48;99172.84;;;13.18;100.00
70027;BME280;57506;50.092;15.804;2022-10-16T03:13:14;99163.06;;;13.17;100.00
70027;BME280;57506;50.092;15.804;2022-10-16T03:15:39;99166.19;;;13.14;100.00
70027;BME280;57506;50.092;15.804;2022-10-16T03:18:04;99163.06;;;13.17;100.00
70027;BME280;57506;50.092;15.804;2022-10-16T03:20:30;99174.72;;;13.17;100.00
70027;BME280;57506;50.092;15.804;2022-10-16T03:22:55;99181.59;;;13.20;100.00
70027;BME280;57506;50.092;15.804;2022-10-16T03:25:21;99165.34;;;13.07;100.00
70027;BME280;57506;50.092;15.804;2022-10-16T03:27:46;99187.84;;;13.20;100.00
70027;BME280;57506;50.092;15.804;2022-10-16T03:30:12;99182.22;;;13.22;100.00
70027;BME280;57506;50.092;15.804;2022-10-16T03:32:37;99189.69;;;13.33;100.00
70027;BME280;57506;50.092;15.804;2022-10-16T03:35:03;99182.44;;;13.27;100.00
70027;BME280;57506;50.092;15.804;2022-10-16T03:37:29;99181.19;;;13.23;100.00
70027;BME280;57506;50.092;15.804;2022-10-16T03:39:54;99179.09;;;13.25;100.00
70027;BME280;57506;50.092;15.804;2022-10-16T03:42:20;99182.84;;;13.17;100.00
70027;BME280;57506;50.092;15.804;2022-10-16T03:44:45;99165.16;;;13.08;100.00
70027;BME280;57506;50.092;15.804;2022-10-16T03:47:11;99187.63;;;13.09;100.00
70027;BME280;57506;50.092;15.804;2022-10-16T03:49:36;99196.16;;;13.12;100.00
70027;BME280;57506;50.092;15.804;2022-10-16T03:52:02;99179.53;;;12.95;100.00
70027;BME280;57506;50.092;15.804;2022-10-16T03:54:27;99187.22;;;12.92;100.00
70027;BME280;57506;50.092;15.804;2022-10-16T03:56:53;99192.00;;;12.90;100.00
70027;BME280;57506;50.092;15.804;2022-10-16T03:59:18;99184.94;;;12.82;100.00
70027;BME280;57506;50.092;15.804;2022-10-16T04:01:44;99189.53;;;12.82;100.00
70027;BME280;57506;50.092;15.804;2022-10-16T04:04:09;99187.84;;;12.74;100.00
70027;BME280;57506;50.092;15.804;2022-10-16T04:06:35;99207.00;;;12.79;100.00
70027;BME280;57506;50.092;15.804;2022-10-16T04:09:00;99192.44;;;12.74;100.00
70027;BME280;57506;50.092;15.804;2022-10-16T04:11:26;99189.69;;;12.67;100.00
70027;BME280;57506;50.092;15.804;2022-10-16T04:13:51;99199.91;;;12.78;100.00
70027;BME280;57506;50.092;15.804;2022-10-16T04:16:17;99217.41;;;12.82;100.00
70027;BME280;57506;50.092;15.804;2022-10-16T04:18:42;99226.13;;;12.84;100.00
70027;BME280;57506;50.092;15.804;2022-10-16T04:21:08;99221.53;;;12.85;100.00
70027;BME280;57506;50.092;15.804;2022-10-16T04:23:33;99222.59;;;12.90;100.00
70027;BME280;57506;50.092;15.804;2022-10-16T04:25:59;99231.13;;;13.01;100.00
70027;BME280;57506;50.092;15.804;2022-10-16T04:28:25;99212.41;;;12.92;100.00
70027;BME280;57506;50.092;15.804;2022-10-16T04:30:51;99225.91;;;12.99;100.00
70027;BME280;57506;50.092;15.804;2022-10-16T04:33:17;99237.38;;;13.08;100.00
70027;BME280;57506;50.092;15.804;2022-10-16T04:35:42;99233.59;;;13.02;100.00
70027;BME280;57506;50.092;15.804;2022-10-16T04:38:08;99237.34;;;13.01;100.00
70027;BME280;57506;50.092;15.804;2022-10-16T04:40:34;99242.34;;;13.04;100.00
70027;BME280;57506;50.092;15.804;2022-10-16T04:43:02;99238.41;;;13.07;100.00
70027;BME280;57506;50.092;15.804;2022-10-16T04:45:28;99226.13;;;13.04;100.00
70027;BME280;57506;50.092;15.804;2022-10-16T04:47:57;99245.69;;;13.13;100.00
70027;BME280;57506;50.092;15.804;2022-10-16T04:50:23;99235.72;;;13.13;100.00
70027;BME280;57506;50.092;15.804;2022-10-16T04:52:48;99240.72;;;13.16;100.00
70027;BME280;57506;50.092;15.804;2022-10-16T04:55:14;99229.25;;;13.14;100.00
70027;BME280;57506;50.092;15.804;2022-10-16T04:57:40;99228.84;;;13.17;100.00
70027;BME280;57506;50.092;15.804;2022-10-16T05:00:06;99228.84;;;13.17;100.00
70027;BME280;57506;50.092;15.804;2022-10-16T05:02:33;99225.31;;;13.17;100.00
70027;BME280;57506;50.092;15.804;2022-10-16T05:04:59;99233.00;;;13.20;100.00
70027;BME280;57506;50.092;15.804;2022-10-16T05:07:24;99234.88;;;13.19;100.00
70027;BME280;57506;50.092;15.804;2022-10-16T05:09:50;99235.50;;;13.21;100.00
70027;BME280;57506;50.092;15.804;2022-10-16T05:12:15;99238.22;;;13.21;100.00
70027;BME280;57506;50.092;15.804;2022-10-16T05:14:41;99247.59;;;13.25;100.00
70027;BME280;57506;50.092;15.804;2022-10-16T05:17:06;99244.66;;;13.27;100.00
70027;BME280;57506;50.092;15.804;2022-10-16T05:19:32;99244.84;;;13.32;100.00
70027;BME280;57506;50.092;15.804;2022-10-16T05:21:57;99250.28;;;13.32;100.00
70027;BME280;57506;50.092;15.804;2022-10-16T05:24:23;99259.84;;;13.35;100.00
70027;BME280;57506;50.092;15.804;2022-10-16T05:26:49;99252.16;;;13.25;100.00
70027;BME280;57506;50.092;15.804;2022-10-16T05:29:15;99257.56;;;13.25;100.00
70027;BME280;57506;50.092;15.804;2022-10-16T05:31:40;99253.41;;;13.29;100.00
70027;BME280;57506;50.092;15.804;2022-10-16T05:34:06;99265.88;;;13.43;100.00
70027;BME280;57506;50.092;15.804;2022-10-16T05:36:31;99271.94;;;13.45;100.00
70027;BME280;57506;50.092;15.804;2022-10-16T05:38:57;99277.13;;;13.47;100.00
70027;BME280;57506;50.092;15.804;2022-10-16T05:41:22;99283.59;;;13.39;100.00
70027;BME280;57506;50.092;15.804;2022-10-16T05:43:51;99276.94;;;13.42;100.00
70027;BME280;57506;50.092;15.804;2022-10-16T05:46:16;99289.81;;;13.53;100.00
70027;BME280;57506;50.092;15.804;2022-10-16T05:48:42;99286.47;;;13.51;100.00
70027;BME280;57506;50.092;15.804;2022-10-16T05:51:11;99298.16;;;13.51;100.00
70027;BME280;57506;50.092;15.804;2022-10-16T05:53:38;99290.25;;;13.43;100.00
70027;BME280;57506;50.092;15.804;2022-10-16T05:56:05;99293.59;;;13.45;100.00
70027;BME280;57506;50.092;15.804;2022-10-16T05:58:35;99301.69;;;13.52;100.00
70027;BME280;57506;50.092;15.804;2022-10-16T06:01:04;99316.47;;;13.56;100.00
70027;BME280;57506;50.092;15.804;2022-10-16T06:03:30;99315.84;;;13.54;100.00
70027;BME280;57506;50.092;15.804;2022-10-16T06:05:56;99316.06;;;13.52;100.00
70027;BME280;57506;50.092;15.804;2022-10-16T06:08:22;99318.75;;;13.52;100.00
70027;BME280;57506;50.092;15.804;2022-10-16T06:10:49;99339.81;;;13.63;100.00
70027;BME280;57506;50.092;15.804;2022-10-16T06:13:25;99330.63;;;13.64;100.00
70027;BME280;57506;50.092;15.804;2022-10-16T06:15:50;99324.38;;;13.64;100.00
70027;BME280;57506;50.092;15.804;2022-10-16T06:18:16;99328.13;;;13.70;100.00
70027;BME280;57506;50.092;15.804;2022-10-16T06:20:41;99318.97;;;13.71;100.00
70027;BME280;57506;50.092;15.804;2022-10-16T06:23:07;99316.88;;;13.73;100.00
70027;BME280;57506;50.092;15.804;2022-10-16T06:25:32;99330.63;;;13.78;100.00
70027;BME280;57506;50.092;15.804;2022-10-16T06:27:58;99319.38;;;13.74;100.00
70027;BME280;57506;50.092;15.804;2022-10-16T06:30:23;99349.97;;;13.81;100.00
70027;BME280;57506;50.092;15.804;2022-10-16T06:32:49;99336.84;;;13.85;100.00
70027;BME280;57506;50.092;15.804;2022-10-16T06:35:14;99335.59;;;13.87;100.00
70027;BME280;57506;50.092;15.804;2022-10-16T06:37:40;99333.50;;;13.83;100.00
70027;BME280;57506;50.092;15.804;2022-10-16T06:40:06;99343.94;;;13.86;100.00
70027;BME280;57506;50.092;15.804;2022-10-16T06:42:32;99342.69;;;13.88;100.00
70027;BME280;57506;50.092;15.804;2022-10-16T06:44:57;99351.63;;;13.95;100.00
70027;BME280;57506;50.092;15.804;2022-10-16T06:47:23;99344.94;;;13.98;100.00
70027;BME280;57506;50.092;15.804;2022-10-16T06:49:48;99354.09;;;14.10;100.00
70027;BME280;57506;50.092;15.804;2022-10-16T06:52:14;99344.31;;;14.09;100.00
70027;BME280;57506;50.092;15.804;2022-10-16T06:54:40;99357.59;;;14.17;100.00
70027;BME280;57506;50.092;15.804;2022-10-16T06:57:05;99355.09;;;14.22;100.00
70027;BME280;57506;50.092;15.804;2022-10-16T06:59:31;99362.97;;;14.30;100.00
70027;BME280;57506;50.092;15.804;2022-10-16T07:01:56;99354.25;;;14.28;100.00
70027;BME280;57506;50.092;15.804;2022-10-16T07:04:22;99350.69;;;14.34;100.00
70027;BME280;57506;50.092;15.804;2022-10-16T07:06:47;99353.81;;;14.31;100.00
70027;BME280;57506;50.092;15.804;2022-10-16T07:09:13;99356.09;;;14.34;100.00
70027;BME280;57506;50.092;15.804;2022-10-16T07:11:39;99381.28;;;14.55;100.00
70027;BME280;57506;50.092;15.804;2022-10-16T07:14:14;99368.75;;;14.60;100.00
70027;BME280;57506;50.092;15.804;2022-10-16T07:16:40;99387.06;;;14.72;100.00
70027;BME280;57506;50.092;15.804;2022-10-16T07:19:06;99378.50;;;14.75;100.00
70027;BME280;57506;50.092;15.804;2022-10-16T07:21:33;99388.69;;;14.79;100.00
70027;BME280;57506;50.092;15.804;2022-10-16T07:24:03;99399.31;;;14.87;100.00
70027;BME280;57506;50.092;15.804;2022-10-16T07:26:31;99409.66;;;15.03;100.00
70027;BME280;57506;50.092;15.804;2022-10-16T07:28:57;99407.78;;;15.04;100.00
70027;BME280;57506;50.092;15.804;2022-10-16T07:31:24;99410.63;;;15.16;100.00
70027;BME280;57506;50.092;15.804;2022-10-16T07:33:50;99402.28;;;15.11;100.00
70027;BME280;57506;50.092;15.804;2022-10-16T07:36:17;99416.84;;;15.23;100.00
70027;BME280;57506;50.092;15.804;2022-10-16T07:38:43;99396.84;;;15.17;100.00
70027;BME280;57506;50.092;15.804;2022-10-16T07:41:14;99406.75;;;15.30;100.00
70027;BME280;57506;50.092;15.804;2022-10-16T07:43:45;99417.50;;;15.50;100.00
70027;BME280;57506;50.092;15.804;2022-10-16T07:46:11;99415.19;;;15.53;100.00
70027;BME280;57506;50.092;15.804;2022-10-16T07:48:36;99421.38;;;15.67;100.00
70027;BME280;57506;50.092;15.804;2022-10-16T07:51:04;99406.41;;;15.51;100.00
70027;BME280;57506;50.092;15.804;2022-10-16T07:53:31;99422.38;;;15.72;100.00
70027;BME280;57506;50.092;15.804;2022-10-16T07:56:03;99429.59;;;15.85;100.00
70027;BME280;57506;50.092;15.804;2022-10-16T07:58:29;99427.25;;;15.89;100.00
70027;BME280;57506;50.092;15.804;2022-10-16T08:00:56;99440.13;;;16.00;100.00
70027;BME280;57506;50.092;15.804;2022-10-16T08:03:23;99441.34;;;16.04;100.00
70027;BME280;57506;50.092;15.804;2022-10-16T08:05:49;99442.84;;;16.00;100.00
70027;BME280;57506;50.092;15.804;2022-10-16T08:08:19;99436.63;;;15.93;100.00
70027;BME280;57506;50.092;15.804;2022-10-16T08:10:45;99457.13;;;16.14;100.00
70027;BME280;57506;50.092;15.804;2022-10-16T08:13:10;99474.16;;;16.27;100.00
70027;BME280;57506;50.092;15.804;2022-10-16T08:15:36;99459.50;;;16.28;100.00
70027;BME280;57506;50.092;15.804;2022-10-16T08:18:04;99459.75;;;16.45;100.00
70027;BME280;57506;50.092;15.804;2022-10-16T08:20:31;99444.25;;;16.45;100.00
70027;BME280;57506;50.092;15.804;2022-10-16T08:22:56;99456.28;;;16.56;100.00
70027;BME280;57506;50.092;15.804;2022-10-16T08:25:23;99456.03;;;16.64;100.00
70027;BME280;57506;50.092;15.804;2022-10-16T08:27:50;99457.69;;;16.84;100.00
70027;BME280;57506;50.092;15.804;2022-10-16T08:30:17;99451.84;;;16.98;100.00
70027;BME280;57506;50.092;15.804;2022-10-16T08:32:42;99447.31;;;16.92;100.00
70027;BME280;57506;50.092;15.804;2022-10-16T08:35:12;99452.91;;;16.97;100.00
70027;BME280;57506;50.092;15.804;2022-10-16T08:37:38;99437.34;;;16.86;100.00
70027;BME280;57506;50.092;15.804;2022-10-16T08:40:17;99461.69;;;16.99;100.00
70027;BME280;57506;50.092;15.804;2022-10-16T08:48:46;99454.75;;;17.45;100.00
70027;BME280;57506;50.092;15.804;2022-10-16T08:51:21;99478.19;;;17.64;100.00
70027;BME280;57506;50.092;15.804;2022-10-16T08:53:58;99475.28;;;17.77;100.00
70027;BME280;57506;50.092;15.804;2022-10-16T08:56:25;99469.34;;;17.80;100.00
70027;BME280;57506;50.092;15.804;2022-10-16T08:58:52;99476.09;;;17.78;100.00
70027;BME280;57506;50.092;15.804;2022-10-16T09:01:19;99485.72;;;17.92;100.00
70027;BME280;57506;50.092;15.804;2022-10-16T09:09:28;99485.88;;;18.21;100.00
70027;BME280;57506;50.092;15.804;2022-10-16T09:12:19;99489.69;;;18.31;100.00
70027;BME280;57506;50.092;15.804;2022-10-16T09:15:05;99483.41;;;18.42;100.00
70027;BME280;57506;50.092;15.804;2022-10-16T09:22:27;99482.94;;;18.69;100.00
70027;BME280;57506;50.092;15.804;2022-10-16T09:24:59;99481.88;;;18.70;100.00
70027;BME280;57506;50.092;15.804;2022-10-16T09:27:26;99480.69;;;18.42;100.00
70027;BME280;57506;50.092;15.804;2022-10-16T09:29:52;99481.53;;;18.66;100.00
70027;BME280;57506;50.092;15.804;2022-10-16T09:32:19;99485.44;;;18.47;100.00
70027;BME280;57506;50.092;15.804;2022-10-16T09:34:48;99475.69;;;18.39;100.00
70027;BME280;57506;50.092;15.804;2022-10-16T09:37:18;99486.97;;;18.31;100.00
70027;BME280;57506;50.092;15.804;2022-10-16T09:39:50;99486.25;;;18.12;100.00
70027;BME280;57506;50.092;15.804;2022-10-16T09:42:32;99486.47;;;18.11;100.00
70027;BME280;57506;50.092;15.804;2022-10-16T09:44:59;99498.44;;;18.10;100.00
70027;BME280;57506;50.092;15.804;2022-10-16T09:47:26;99501.19;;;18.10;100.00
70027;BME280;57506;50.092;15.804;2022-10-16T09:49:55;99506.75;;;18.15;100.00
70027;BME280;57506;50.092;15.804;2022-10-16T09:52:23;99502.59;;;18.12;100.00
70027;BME280;57506;50.092;15.804;2022-10-16T09:54:54;99502.59;;;18.12;100.00
70027;BME280;57506;50.092;15.804;2022-10-16T09:57:20;99496.56;;;18.10;100.00
70027;BME280;57506;50.092;15.804;2022-10-16T09:59:48;99494.88;;;17.98;100.00
70027;BME280;57506;50.092;15.804;2022-10-16T10:02:16;99500.81;;;18.06;100.00
70027;BME280;57506;50.092;15.804;2022-10-16T10:04:49;99508.75;;;18.19;100.00
70027;BME280;57506;50.092;15.804;2022-10-16T10:07:53;99505.00;;;18.32;100.00
70027;BME280;57506;50.092;15.804;2022-10-16T10:10:23;99489.94;;;18.30;100.00
70027;BME280;57506;50.092;15.804;2022-10-16T10:12:49;99496.81;;;18.32;100.00
70027;BME280;57506;50.092;15.804;2022-10-16T10:15:15;99503.09;;;18.44;100.00
70027;BME280;57506;50.092;15.804;2022-10-16T10:17:54;99495.19;;;18.66;100.00
70027;BME280;57506;50.092;15.804;2022-10-16T10:20:35;99489.47;;;18.79;100.00
70027;BME280;57506;50.092;15.804;2022-10-16T10:23:23;99493.50;;;19.29;100.00
70027;BME280;57506;50.092;15.804;2022-10-16T10:31:08;99492.47;;;19.06;100.00
70027;BME280;57506;50.092;15.804;2022-10-16T10:33:53;99499.91;;;19.22;100.00
70027;BME280;57506;50.092;15.804;2022-10-16T10:36:39;99494.94;;;19.19;100.00
70027;BME280;57506;50.092;15.804;2022-10-16T11:00:50;99500.28;;;20.16;100.00
70027;BME280;57506;50.092;15.804;2022-10-16T11:06:08;99473.03;;;20.05;100.00
70027;BME280;57506;50.092;15.804;2022-10-16T11:08:41;99497.75;;;20.10;100.00
70027;BME280;57506;50.092;15.804;2022-10-16T11:11:20;99499.16;;;20.12;100.00
70027;BME280;57506;50.092;15.804;2022-10-16T11:14:19;99494.19;;;20.09;100.00
70027;BME280;57506;50.092;15.804;2022-10-16T11:16:58;99490.03;;;20.07;100.00
70027;BME280;57506;50.092;15.804;2022-10-16T11:19:31;99482.66;;;20.24;100.00
70027;BME280;57506;50.092;15.804;2022-10-16T11:30:14;99469.59;;;20.31;99.77
70027;BME280;57506;50.092;15.804;2022-10-16T11:33:21;99473.94;;;20.27;100.00
70027;BME280;57506;50.092;15.804;2022-10-16T11:36:25;99475.59;;;20.28;99.79
70027;BME280;57506;50.092;15.804;2022-10-16T11:41:48;99492.28;;;20.43;98.71
70027;BME280;57506;50.092;15.804;2022-10-16T11:49:44;99478.81;;;20.58;99.39
70027;BME280;57506;50.092;15.804;2022-10-16T11:52:28;99475.09;;;20.48;100.00
70027;BME280;57506;50.092;15.804;2022-10-16T11:55:05;99474.22;;;20.42;100.00
70027;BME280;57506;50.092;15.804;2022-10-16T11:57:46;99479.47;;;20.66;99.34
70027;BME280;57506;50.092;15.804;2022-10-16T12:00:25;99482.59;;;20.74;100.00
70027;BME280;57506;50.092;15.804;2022-10-16T12:08:28;99490.69;;;21.24;94.61
70027;BME280;57506;50.092;15.804;2022-10-16T12:11:06;99484.88;;;21.21;94.72
70027;BME280;57506;50.092;15.804;2022-10-16T12:13:35;99493.75;;;21.11;95.05
70027;BME280;57506;50.092;15.804;2022-10-16T12:18:36;99485.41;;;21.01;95.30
70027;BME280;57506;50.092;15.804;2022-10-16T12:21:02;99478.19;;;20.95;98.24
70027;BME280;57506;50.092;15.804;2022-10-16T12:23:33;99479.03;;;20.95;97.03
70027;BME280;57506;50.092;15.804;2022-10-16T12:26:02;99481.34;;;21.04;94.95
70027;BME280;57506;50.092;15.804;2022-10-16T12:28:29;99500.56;;;20.87;95.92
70027;BME280;57506;50.092;15.804;2022-10-16T12:31:02;99505.59;;;20.73;95.87
70027;BME280;57506;50.092;15.804;2022-10-16T12:33:33;99487.16;;;20.69;96.54
70027;BME280;57506;50.092;15.804;2022-10-16T12:36:01;99496.94;;;20.81;96.30
70027;BME280;57506;50.092;15.804;2022-10-16T12:38:37;99491.94;;;20.78;96.31
70027;BME280;57506;50.092;15.804;2022-10-16T12:41:06;99491.28;;;20.88;95.37
70027;BME280;57506;50.092;15.804;2022-10-16T12:46:22;99490.00;;;21.17;95.46
70027;BME280;57506;50.092;15.804;2022-10-16T12:48:48;99492.34;;;21.25;92.84
70027;BME280;57506;50.092;15.804;2022-10-16T12:51:34;99488.13;;;21.40;92.67
70027;BME280;57506;50.092;15.804;2022-10-16T12:54:22;99475.22;;;21.67;90.96
70027;BME280;57506;50.092;15.804;2022-10-16T13:05:46;99493.44;;;21.51;90.77
70027;BME280;57506;50.092;15.804;2022-10-16T13:08:37;99498.00;;;21.41;91.07
70027;BME280;57506;50.092;15.804;2022-10-16T13:19:46;99506.88;;;22.02;86.23
70027;BME280;57506;50.092;15.804;2022-10-16T13:22:21;99510.06;;;22.20;86.85
70027;BME280;57506;50.092;15.804;2022-10-16T13:28:05;99509.31;;;22.30;86.06
70027;BME280;57506;50.092;15.804;2022-10-16T13:30:37;99525.13;;;22.18;86.39
70027;BME280;57506;50.092;15.804;2022-10-16T13:35:50;99507.22;;;22.10;88.17
70027;BME280;57506;50.092;15.804;2022-10-16T13:38:21;99511.97;;;21.93;88.83
70027;BME280;57506;50.092;15.804;2022-10-16T13:43:31;99515.31;;;22.27;85.85
70027;BME280;57506;50.092;15.804;2022-10-16T13:46:01;99516.25;;;22.43;86.38
70027;BME280;57506;50.092;15.804;2022-10-16T13:48:28;99518.84;;;22.54;82.98
70027;BME280;57506;50.092;15.804;2022-10-16T13:51:11;99527.09;;;22.59;85.44
70027;BME280;57506;50.092;15.804;2022-10-16T13:53:38;99523.50;;;22.59;85.53
70027;BME280;57506;50.092;15.804;2022-10-16T13:56:05;99516.63;;;22.51;86.79
70027;BME280;57506;50.092;15.804;2022-10-16T13:58:32;99522.69;;;22.58;85.00
70027;BME280;57506;50.092;15.804;2022-10-16T14:01:00;99517.53;;;22.30;83.64
70027;BME280;57506;50.092;15.804;2022-10-16T14:03:27;99523.09;;;22.08;85.82
70027;BME280;57506;50.092;15.804;2022-10-16T14:05:56;99524.00;;;22.14;86.93
70027;BME280;57506;50.092;15.804;2022-10-16T14:08:25;99514.41;;;21.89;87.32
70027;BME280;57506;50.092;15.804;2022-10-16T14:11:10;99500.53;;;21.47;87.95
70027;BME280;57506;50.092;15.804;2022-10-16T14:13:39;99530.84;;;21.36;89.62
70027;BME280;57506;50.092;15.804;2022-10-16T14:16:07;99517.88;;;21.31;89.73
70027;BME280;57506;50.092;15.804;2022-10-16T14:18:34;99516.72;;;21.27;90.23
70027;BME280;57506;50.092;15.804;2022-10-16T14:21:05;99523.00;;;21.22;90.70
70027;BME280;57506;50.092;15.804;2022-10-16T14:28:39;99511.34;;;21.15;90.31
70027;BME280;57506;50.092;15.804;2022-10-16T14:33:51;99513.00;;;20.94;90.60
70027;BME280;57506;50.092;15.804;2022-10-16T14:36:17;99528.25;;;21.07;90.06
70027;BME280;57506;50.092;15.804;2022-10-16T14:39:02;99530.53;;;21.15;90.64
70027;BME280;57506;50.092;15.804;2022-10-16T14:41:31;99543.22;;;21.00;93.02
70027;BME280;57506;50.092;15.804;2022-10-16T14:44:01;99637.66;;;20.92;92.40
70027;BME280;57506;50.092;15.804;2022-10-16T14:46:31;99540.47;;;20.78;93.67
70027;BME280;57506;50.092;15.804;2022-10-16T14:49:02;99544.44;;;20.70;94.58
70027;BME280;57506;50.092;15.804;2022-10-16T14:51:29;99554.19;;;20.44;95.37
70027;BME280;57506;50.092;15.804;2022-10-16T14:53:55;99554.66;;;20.41;95.05
70027;BME280;57506;50.092;15.804;2022-10-16T14:56:23;99546.91;;;20.21;96.33